createdAt,value
2024-03-14T00:01:35.078Z,9.30
2024-03-14T00:04:05.164Z,8.70
2024-03-14T00:06:32.928Z,10.63
2024-03-14T00:09:02.450Z,9.80
2024-03-14T00:11:34.084Z,9.15
2024-03-14T00:14:02.145Z,9.32
2024-03-14T00:16:29.832Z,10.23
2024-03-14T00:19:01.267Z,10.20
2024-03-14T00:21:29.165Z,9.35
2024-03-14T00:23:58.192Z,9.65
2024-03-14T00:26:25.928Z,10.77
2024-03-14T00:28:53.999Z,10.80
2024-03-14T00:33:49.413Z,8.50
2024-03-14T00:36:17.564Z,9.48
2024-03-14T00:38:45.756Z,10.07
2024-03-14T00:41:16.940Z,9.73
2024-03-14T00:43:44.854Z,10.27
2024-03-14T00:46:13.202Z,10.05
2024-03-14T00:48:41.634Z,9.15
2024-03-14T00:51:11.197Z,9.25
2024-03-14T00:53:39.008Z,9.40
2024-03-14T00:56:06.689Z,9.70
2024-03-14T00:58:34.402Z,9.32
2024-03-14T01:01:02.818Z,10.05
2024-03-14T01:03:32.119Z,9.77
2024-03-14T01:06:00.361Z,9.80
2024-03-14T01:08:30.516Z,8.80
2024-03-14T01:10:58.227Z,9.48
2024-03-14T01:13:27.183Z,9.18
2024-03-14T01:15:55.092Z,10.10
2024-03-14T01:18:23.487Z,9.02
2024-03-14T01:20:51.591Z,9.30
2024-03-14T01:23:19.669Z,8.85
2024-03-14T01:25:47.584Z,8.25
2024-03-14T01:28:15.511Z,9.68
2024-03-14T01:33:11.689Z,8.00
2024-03-14T01:35:40.186Z,10.45
2024-03-14T01:38:08.391Z,9.30
2024-03-14T01:40:36.997Z,9.38
2024-03-14T01:43:05.455Z,8.50
2024-03-14T01:45:34.052Z,9.95
2024-03-14T01:48:02.095Z,9.35
2024-03-14T01:50:30.035Z,9.45
2024-03-14T01:52:59.318Z,9.70
2024-03-14T01:55:28.433Z,9.65
2024-03-14T01:57:55.998Z,8.75
2024-03-14T02:00:31.137Z,10.73
2024-03-14T02:02:58.935Z,8.98
2024-03-14T02:05:33.690Z,9.35
2024-03-14T02:08:01.595Z,8.43
2024-03-14T02:10:29.942Z,9.98
2024-03-14T02:12:58.111Z,9.43
2024-03-14T02:15:25.965Z,9.10
2024-03-14T02:17:54.229Z,8.57
2024-03-14T02:20:22.739Z,9.23
2024-03-14T02:22:50.711Z,8.95
2024-03-14T02:25:19.329Z,9.38
2024-03-14T02:27:47.320Z,8.90
2024-03-14T02:30:14.924Z,8.55
2024-03-14T02:32:42.395Z,9.88
2024-03-14T02:35:10.925Z,9.20
2024-03-14T02:37:38.760Z,9.38
2024-03-14T02:40:07.889Z,10.93
2024-03-14T02:42:37.087Z,9.13
2024-03-14T02:45:09.488Z,8.98
2024-03-14T02:47:38.662Z,9.13
2024-03-14T02:50:10.475Z,8.85
2024-03-14T02:52:39.677Z,9.18
2024-03-14T02:55:09.070Z,9.73
2024-03-14T02:57:38.003Z,8.15
2024-03-14T03:02:42.923Z,7.53
2024-03-14T03:05:11.746Z,9.02
2024-03-14T03:07:39.596Z,9.48
2024-03-14T03:10:08.294Z,8.48
2024-03-14T03:12:41.594Z,8.40
2024-03-14T03:15:12.559Z,8.00
2024-03-14T03:17:40.976Z,10.13
2024-03-14T03:20:13.205Z,8.65
2024-03-14T03:22:59.713Z,9.88
2024-03-14T03:25:27.535Z,9.48
2024-03-14T03:27:55.283Z,8.50
2024-03-14T03:30:23.543Z,9.52
2024-03-14T03:32:52.221Z,9.38
2024-03-14T03:35:24.975Z,8.15
2024-03-14T03:37:56.550Z,9.30
2024-03-14T03:40:24.785Z,9.10
2024-03-14T03:42:55.137Z,9.07
2024-03-14T03:45:23.735Z,9.27
2024-03-14T03:47:52.292Z,10.23
2024-03-14T03:50:19.980Z,10.15
2024-03-14T03:52:47.843Z,9.25
2024-03-14T03:55:18.630Z,9.43
2024-03-14T03:57:47.939Z,11.10
2024-03-14T04:00:38.104Z,11.30
2024-03-14T04:03:13.398Z,11.77
2024-03-14T04:05:41.289Z,10.85
2024-03-14T04:08:09.228Z,10.20
2024-03-14T04:10:37.678Z,9.57
2024-03-14T04:13:08.054Z,12.80
2024-03-14T04:15:36.315Z,10.55
2024-03-14T04:18:07.390Z,9.45
2024-03-14T04:20:39.732Z,9.35
2024-03-14T04:23:08.487Z,9.68
2024-03-14T04:28:03.930Z,10.40
2024-03-14T04:30:31.615Z,10.07
2024-03-14T04:32:59.461Z,9.32
2024-03-14T04:35:27.250Z,9.85
2024-03-14T04:37:55.220Z,10.23
2024-03-14T04:40:23.650Z,8.60
2024-03-14T04:42:54.868Z,9.65
2024-03-14T04:45:23.470Z,9.75
2024-03-14T04:47:52.775Z,8.73
2024-03-14T04:50:20.741Z,9.43
2024-03-14T04:52:56.240Z,8.27
2024-03-14T04:55:25.015Z,8.80
2024-03-14T04:57:53.162Z,9.63
2024-03-14T05:00:21.410Z,10.90
2024-03-14T05:02:51.766Z,9.88
2024-03-14T05:05:20.127Z,9.48
2024-03-14T05:07:49.494Z,10.32
2024-03-14T05:10:21.506Z,9.63
2024-03-14T05:12:50.245Z,10.50
2024-03-14T05:15:18.494Z,10.77
2024-03-14T05:17:47.380Z,10.73
2024-03-14T05:20:17.330Z,10.13
2024-03-14T05:22:45.997Z,10.13
2024-03-14T05:25:15.189Z,10.65
2024-03-14T05:27:46.709Z,9.63
2024-03-14T05:30:15.333Z,10.95
2024-03-14T05:32:43.372Z,19.13
2024-03-14T05:35:11.845Z,14.60
2024-03-14T05:37:39.709Z,14.93
2024-03-14T05:40:11.887Z,23.17
2024-03-14T05:42:40.932Z,21.75
2024-03-14T05:45:10.821Z,13.70
2024-03-14T05:47:41.131Z,14.27
2024-03-14T05:50:11.911Z,13.73
2024-03-14T05:52:43.382Z,16.25
2024-03-14T05:55:11.972Z,11.52
2024-03-14T05:57:41.193Z,11.57
2024-03-14T06:00:13.992Z,13.50
2024-03-14T06:02:42.931Z,11.75
2024-03-14T06:05:11.832Z,12.77
2024-03-14T06:07:40.158Z,9.25
2024-03-14T06:10:08.623Z,9.73
2024-03-14T06:12:38.808Z,10.45
2024-03-14T06:15:08.723Z,9.57
2024-03-14T06:17:36.673Z,9.50
2024-03-14T06:20:09.076Z,9.10
2024-03-14T06:22:41.190Z,7.45
2024-03-14T06:25:09.015Z,9.80
2024-03-14T06:27:36.999Z,8.23
2024-03-14T06:30:13.615Z,8.38
2024-03-14T06:32:47.999Z,10.13
2024-03-14T06:35:16.854Z,9.07
2024-03-14T06:37:44.570Z,9.10
2024-03-14T06:40:15.725Z,8.48
2024-03-14T06:42:43.883Z,8.98
2024-03-14T06:45:12.295Z,9.38
2024-03-14T06:47:42.307Z,8.85
2024-03-14T06:50:11.681Z,9.32
2024-03-14T06:52:39.643Z,9.32
2024-03-14T06:55:11.843Z,9.50
2024-03-14T06:57:41.746Z,9.40
2024-03-14T07:00:14.340Z,9.40
2024-03-14T07:02:42.360Z,9.52
2024-03-14T07:05:10.819Z,10.02
2024-03-14T07:07:38.571Z,8.95
2024-03-14T07:10:10.093Z,9.90
2024-03-14T07:12:38.054Z,12.80
2024-03-14T07:15:07.506Z,9.88
2024-03-14T07:17:36.489Z,9.07
2024-03-14T07:20:26.470Z,10.48
2024-03-14T07:22:54.926Z,10.27
2024-03-14T07:25:22.779Z,11.00
2024-03-14T07:27:50.330Z,9.45
2024-03-14T07:30:19.296Z,9.00
2024-03-14T07:32:48.665Z,9.00
2024-03-14T07:35:17.044Z,9.05
2024-03-14T07:37:51.398Z,7.50
2024-03-14T07:40:19.935Z,8.15
2024-03-14T07:42:48.037Z,8.23
2024-03-14T07:45:19.745Z,7.45
2024-03-14T07:47:54.477Z,7.95
2024-03-14T07:50:24.808Z,8.07
2024-03-14T07:52:53.179Z,7.05
2024-03-14T07:55:20.954Z,8.15
2024-03-14T07:57:48.699Z,8.90
2024-03-14T08:00:17.337Z,7.38
2024-03-14T08:02:57.365Z,7.57
2024-03-14T08:05:27.393Z,8.40
2024-03-14T08:08:05.491Z,7.57
2024-03-14T08:10:48.184Z,9.23
2024-03-14T08:13:23.475Z,9.00
2024-03-14T08:15:56.131Z,8.73
2024-03-14T08:18:25.289Z,8.93
2024-03-14T08:20:58.099Z,8.75
2024-03-14T08:23:28.228Z,9.95
2024-03-14T08:25:57.862Z,8.05
2024-03-14T08:28:25.596Z,8.32
2024-03-14T08:30:53.935Z,14.13
2024-03-14T08:33:25.458Z,7.60
2024-03-14T08:35:55.531Z,8.13
2024-03-14T08:38:23.722Z,9.50
2024-03-14T08:40:51.824Z,8.85
2024-03-14T08:45:47.508Z,8.45
2024-03-14T08:48:15.536Z,8.48
2024-03-14T08:50:43.309Z,9.38
2024-03-14T08:53:11.567Z,9.25
2024-03-14T08:55:47.005Z,9.05
2024-03-14T08:58:14.528Z,9.38
2024-03-14T09:00:42.268Z,9.60
2024-03-14T09:03:10.300Z,11.68
2024-03-14T09:05:39.039Z,10.63
2024-03-14T09:08:07.119Z,8.65
2024-03-14T09:13:03.320Z,8.13
2024-03-14T09:15:31.861Z,10.30
2024-03-14T09:18:01.766Z,8.77
2024-03-14T09:20:29.913Z,10.23
2024-03-14T09:22:58.037Z,9.40
2024-03-14T09:25:30.382Z,9.98
2024-03-14T09:28:01.106Z,9.52
2024-03-14T09:30:29.722Z,9.02
2024-03-14T09:32:57.552Z,8.80
2024-03-14T09:35:29.180Z,11.52
2024-03-14T09:37:57.537Z,8.85
2024-03-14T09:40:25.761Z,7.57
2024-03-14T09:42:58.609Z,7.35
2024-03-14T09:45:32.197Z,7.90
2024-03-14T09:48:00.654Z,8.02
2024-03-14T09:50:29.401Z,8.73
2024-03-14T09:52:57.486Z,8.25
2024-03-14T09:57:55.097Z,8.15
2024-03-14T10:00:26.409Z,8.05
2024-03-14T10:02:54.694Z,8.48
2024-03-14T10:05:23.277Z,8.43
2024-03-14T10:07:51.806Z,9.05
2024-03-14T10:10:20.870Z,7.38
2024-03-14T10:12:58.492Z,9.20
2024-03-14T10:15:28.610Z,9.30
2024-03-14T10:17:57.824Z,8.77
2024-03-14T10:20:26.181Z,9.75
2024-03-14T10:22:53.992Z,9.48
2024-03-14T10:25:37.127Z,9.82
2024-03-14T10:28:10.987Z,10.38
2024-03-14T10:30:50.385Z,13.32
2024-03-14T10:33:18.371Z,9.35
2024-03-14T10:35:47.700Z,10.35
2024-03-14T10:38:21.638Z,9.93
2024-03-14T10:40:50.351Z,10.73
2024-03-14T10:43:19.653Z,10.32
2024-03-14T10:45:54.260Z,11.55
2024-03-14T10:48:24.228Z,9.77
2024-03-14T10:50:56.008Z,10.00
2024-03-14T10:53:25.876Z,10.18
2024-03-14T10:55:56.575Z,8.98
2024-03-14T10:58:26.996Z,8.63
2024-03-14T11:00:57.154Z,9.75
2024-03-14T11:03:25.758Z,9.05
2024-03-14T11:05:57.056Z,8.80
2024-03-14T11:08:27.742Z,8.73
2024-03-14T11:10:58.057Z,8.95
2024-03-14T11:13:28.181Z,9.30
2024-03-14T11:16:00.670Z,9.80
2024-03-14T11:18:39.849Z,9.43
2024-03-14T11:21:13.816Z,10.27
2024-03-14T11:23:42.269Z,9.55
2024-03-14T11:26:16.753Z,8.98
2024-03-14T11:28:45.651Z,9.65
2024-03-14T11:31:14.931Z,9.27
2024-03-14T11:33:42.837Z,8.98
2024-03-14T11:38:42.021Z,7.55
2024-03-14T11:41:15.613Z,7.35
2024-03-14T11:43:43.397Z,8.07
2024-03-14T11:46:15.713Z,8.00
2024-03-14T11:48:44.454Z,7.97
2024-03-14T11:51:12.905Z,7.68
2024-03-14T11:53:41.369Z,8.57
2024-03-14T11:56:12.466Z,8.40
2024-03-14T11:58:46.042Z,7.55
2024-03-14T12:01:21.610Z,7.72
2024-03-14T12:03:53.083Z,7.30
2024-03-14T12:08:53.610Z,7.25
2024-03-14T12:11:22.232Z,7.22
2024-03-14T12:13:55.024Z,7.72
2024-03-14T12:16:23.640Z,9.25
2024-03-14T12:18:53.270Z,9.98
2024-03-14T12:21:21.544Z,9.85
2024-03-14T12:23:57.003Z,8.25
2024-03-14T12:26:25.287Z,8.77
2024-03-14T12:28:53.103Z,7.50
2024-03-14T12:33:49.378Z,7.40
2024-03-14T12:36:20.416Z,8.02
2024-03-14T12:38:53.244Z,8.32
2024-03-14T12:41:21.482Z,7.63
2024-03-14T12:43:50.045Z,8.25
2024-03-14T12:46:20.914Z,7.40
2024-03-14T12:48:50.904Z,8.55
2024-03-14T12:51:25.871Z,7.78
2024-03-14T12:53:58.219Z,7.90
2024-03-14T12:56:27.113Z,7.93
2024-03-14T12:58:57.064Z,7.68
2024-03-14T13:01:33.516Z,7.43
2024-03-14T13:04:08.545Z,8.07
2024-03-14T13:06:37.802Z,9.10
2024-03-14T13:09:21.890Z,7.18
2024-03-14T13:12:21.117Z,6.13
2024-03-14T13:15:01.981Z,12.63
2024-03-14T13:17:33.789Z,7.20
2024-03-14T13:20:03.530Z,7.63
2024-03-14T13:22:31.858Z,9.45
2024-03-14T13:24:59.721Z,12.45
2024-03-14T13:29:55.762Z,9.02
2024-03-14T13:32:23.653Z,10.70
2024-03-14T13:34:51.382Z,9.43
2024-03-14T13:37:19.603Z,9.77
2024-03-14T13:39:47.267Z,9.90
2024-03-14T13:42:17.612Z,14.18
2024-03-14T13:44:47.653Z,7.25
2024-03-14T13:47:24.094Z,7.53
2024-03-14T13:49:55.075Z,8.57
2024-03-14T13:52:23.443Z,7.95
2024-03-14T13:54:51.839Z,7.28
2024-03-14T13:57:21.043Z,7.07
2024-03-14T13:59:48.846Z,8.07
2024-03-14T14:02:18.882Z,8.10
2024-03-14T14:04:47.401Z,6.88
2024-03-14T14:07:15.062Z,8.65
2024-03-14T14:09:44.508Z,8.18
2024-03-14T14:12:12.759Z,7.25
2024-03-14T14:17:09.629Z,8.40
2024-03-14T14:19:38.256Z,7.80
2024-03-14T14:22:09.878Z,9.00
2024-03-14T14:24:37.717Z,9.48
2024-03-14T14:29:33.026Z,7.18
2024-03-14T14:32:01.345Z,7.63
2024-03-14T14:34:29.921Z,7.93
2024-03-14T14:36:58.532Z,7.97
2024-03-14T14:39:30.856Z,8.35
2024-03-14T14:42:00.624Z,8.00
2024-03-14T14:44:28.357Z,9.10
2024-03-14T14:46:55.984Z,7.45
2024-03-14T14:49:23.759Z,8.10
2024-03-14T14:51:51.349Z,8.80
2024-03-14T14:54:19.019Z,10.00
2024-03-14T14:56:46.558Z,11.85
2024-03-14T14:59:14.133Z,11.70
2024-03-14T15:01:41.927Z,10.15
2024-03-14T15:04:09.590Z,8.45
2024-03-14T15:06:37.565Z,9.43
2024-03-14T15:09:06.565Z,8.15
2024-03-14T15:11:35.118Z,7.75
2024-03-14T15:14:05.269Z,9.38
2024-03-14T15:16:33.379Z,9.00
2024-03-14T15:19:05.952Z,9.13
2024-03-14T15:21:34.469Z,7.13
2024-03-14T15:26:30.753Z,7.78
2024-03-14T15:28:59.529Z,8.23
2024-03-14T15:31:27.965Z,7.97
2024-03-14T15:33:57.610Z,8.82
2024-03-14T15:36:28.107Z,10.00
2024-03-14T15:38:57.127Z,14.77
2024-03-14T15:41:25.390Z,17.35
2024-03-14T15:43:53.475Z,18.45
2024-03-14T15:46:23.974Z,19.85
2024-03-14T15:48:52.399Z,20.60
2024-03-14T15:51:21.305Z,22.52
2024-03-14T15:53:52.051Z,34.53
2024-03-14T15:56:19.814Z,38.03
2024-03-14T15:58:48.837Z,43.88
2024-03-14T16:01:17.241Z,27.25
2024-03-14T16:03:45.515Z,25.38
2024-03-14T16:08:51.522Z,25.17
2024-03-14T16:11:23.435Z,24.13
2024-03-14T16:16:19.112Z,23.25
2024-03-14T16:18:50.581Z,22.17
2024-03-14T16:21:19.512Z,25.95
2024-03-14T16:23:48.433Z,29.48
2024-03-14T16:26:20.339Z,26.52
2024-03-14T16:28:53.227Z,29.17
2024-03-14T16:31:23.816Z,28.88
2024-03-14T16:33:52.358Z,34.95
2024-03-14T16:36:22.861Z,40.08
2024-03-14T16:38:50.756Z,29.88
2024-03-14T16:41:18.638Z,26.73
2024-03-14T16:43:47.093Z,25.20
2024-03-14T16:46:17.246Z,24.10
2024-03-14T16:48:45.377Z,28.05
2024-03-14T16:51:14.007Z,24.00
2024-03-14T16:53:42.480Z,25.13
2024-03-14T16:56:13.935Z,24.30
2024-03-14T16:58:41.885Z,19.20
2024-03-14T17:01:10.873Z,18.08
2024-03-14T17:03:38.662Z,16.17
2024-03-14T17:06:06.820Z,17.35
2024-03-14T17:08:35.801Z,18.13
2024-03-14T17:11:04.576Z,16.23
2024-03-14T17:13:32.566Z,15.45
2024-03-14T17:16:02.415Z,13.48
2024-03-14T17:18:31.750Z,16.23
2024-03-14T17:21:01.825Z,16.63
2024-03-14T17:23:29.598Z,15.80
2024-03-14T17:25:57.510Z,16.58
2024-03-14T17:28:26.405Z,16.80
2024-03-14T17:30:55.798Z,14.32
2024-03-14T17:33:23.821Z,13.68
2024-03-14T17:35:52.487Z,14.75
2024-03-14T17:38:21.594Z,15.00
2024-03-14T17:40:49.425Z,13.07
2024-03-14T17:43:17.311Z,14.32
2024-03-14T17:45:44.958Z,16.42
2024-03-14T17:48:12.830Z,18.42
2024-03-14T17:50:41.534Z,16.45
2024-03-14T17:53:09.990Z,17.17
2024-03-14T17:55:38.307Z,17.10
2024-03-14T17:58:07.438Z,16.77
2024-03-14T18:00:35.200Z,17.80
2024-03-14T18:03:07.855Z,15.50
2024-03-14T18:05:37.341Z,18.70
2024-03-14T18:08:10.585Z,18.08
2024-03-14T18:10:38.620Z,17.75
2024-03-14T18:13:06.784Z,18.83
2024-03-14T18:15:34.480Z,31.17
2024-03-14T18:18:03.228Z,20.25
2024-03-14T18:20:32.393Z,17.98
2024-03-14T18:23:00.104Z,17.95
2024-03-14T18:25:27.777Z,18.30
2024-03-14T18:27:55.495Z,16.90
2024-03-14T18:30:24.262Z,20.05
2024-03-14T18:32:52.573Z,24.83
2024-03-14T18:35:24.757Z,19.17
2024-03-14T18:37:54.471Z,17.17
2024-03-14T18:40:31.781Z,15.75
2024-03-14T18:43:00.604Z,15.65
2024-03-14T18:45:29.192Z,15.93
2024-03-14T18:47:59.807Z,16.20
2024-03-14T18:50:27.878Z,16.98
2024-03-14T18:52:56.439Z,18.83
2024-03-14T18:55:24.895Z,16.33
2024-03-14T18:57:53.701Z,16.88
2024-03-14T19:00:27.398Z,18.48
2024-03-14T19:02:56.158Z,17.83
2024-03-14T19:05:28.885Z,16.20
2024-03-14T19:08:04.174Z,15.05
2024-03-14T19:10:34.591Z,15.90
2024-03-14T19:13:04.640Z,15.32
2024-03-14T19:15:33.455Z,14.40
2024-03-14T19:18:02.728Z,13.98
2024-03-14T19:20:30.820Z,12.00
2024-03-14T19:22:58.662Z,12.35
2024-03-14T19:27:55.546Z,11.90
2024-03-14T19:30:25.634Z,12.88
2024-03-14T19:32:54.146Z,14.35
2024-03-14T19:35:21.942Z,14.68
2024-03-14T19:37:50.149Z,15.25
2024-03-14T19:40:18.181Z,13.85
2024-03-14T19:45:14.178Z,12.05
2024-03-14T19:47:46.512Z,12.02
2024-03-14T19:50:14.922Z,13.20
2024-03-14T19:52:43.350Z,13.40
2024-03-14T19:55:11.246Z,13.05
2024-03-14T19:57:39.797Z,13.30
2024-03-14T20:00:12.105Z,13.60
2024-03-14T20:02:42.281Z,13.30
2024-03-14T20:05:10.969Z,12.15
2024-03-14T20:07:38.715Z,14.90
2024-03-14T20:10:07.083Z,15.70
2024-03-14T20:12:35.741Z,13.30
2024-03-14T20:15:04.315Z,16.52
2024-03-14T20:17:34.492Z,13.88
2024-03-14T20:20:12.557Z,13.65
2024-03-14T20:22:42.247Z,13.43
2024-03-14T20:25:14.248Z,15.35
2024-03-14T20:27:42.330Z,16.35
2024-03-14T20:30:14.280Z,15.90
2024-03-14T20:32:45.868Z,16.13
2024-03-14T20:35:17.032Z,17.35
2024-03-14T20:37:45.002Z,17.15
2024-03-14T20:40:15.991Z,17.52
2024-03-14T20:42:44.120Z,14.60
2024-03-14T20:45:15.313Z,15.23
2024-03-14T20:47:43.213Z,14.15
2024-03-14T20:50:13.242Z,14.60
2024-03-14T20:52:41.811Z,12.05
2024-03-14T20:58:08.989Z,13.60
2024-03-14T21:00:36.925Z,12.35
2024-03-14T21:03:04.913Z,14.00
2024-03-14T21:05:32.761Z,12.68
2024-03-14T21:08:05.918Z,14.20
2024-03-14T21:10:36.422Z,12.77
2024-03-14T21:13:09.408Z,10.93
2024-03-14T21:15:38.429Z,11.57
2024-03-14T21:18:12.884Z,13.18
2024-03-14T21:20:41.486Z,11.80
2024-03-14T21:23:09.161Z,11.95
2024-03-14T21:25:36.850Z,13.00
2024-03-14T21:28:04.672Z,14.65
2024-03-14T21:30:32.518Z,13.35
2024-03-14T21:33:00.884Z,15.07
2024-03-14T21:35:28.906Z,15.20
2024-03-14T21:40:25.479Z,12.43
2024-03-14T21:42:53.803Z,17.08
2024-03-14T21:45:21.697Z,15.05
2024-03-14T21:47:49.985Z,15.80
2024-03-14T21:50:18.291Z,16.08
2024-03-14T21:52:46.746Z,16.35
2024-03-14T21:57:49.025Z,19.48
2024-03-14T22:00:20.218Z,20.38
2024-03-14T22:02:51.004Z,14.52
2024-03-14T22:05:21.727Z,18.90
2024-03-14T22:07:49.602Z,16.48
2024-03-14T22:10:17.657Z,13.70
2024-03-14T22:12:46.528Z,13.10
2024-03-14T22:15:14.925Z,12.55
2024-03-14T22:17:46.035Z,13.20
2024-03-14T22:20:21.159Z,12.82
2024-03-14T22:22:50.496Z,16.65
2024-03-14T22:25:18.381Z,14.85
2024-03-14T22:30:14.392Z,14.45
2024-03-14T22:32:42.297Z,13.48
2024-03-14T22:35:11.744Z,13.35
2024-03-14T22:37:39.500Z,14.20
2024-03-14T22:40:08.101Z,15.38
2024-03-14T22:42:36.443Z,17.40
2024-03-14T22:45:04.766Z,15.25
2024-03-14T22:47:33.732Z,15.48
2024-03-14T22:50:01.530Z,15.50
2024-03-14T22:52:30.885Z,15.60
2024-03-14T22:54:58.319Z,16.05
2024-03-14T22:57:25.979Z,15.32
2024-03-14T22:59:53.736Z,16.20
2024-03-14T23:02:22.222Z,15.30
2024-03-14T23:04:54.415Z,13.63
2024-03-14T23:07:22.871Z,14.73
2024-03-14T23:09:54.614Z,15.27
2024-03-14T23:12:22.367Z,14.65
2024-03-14T23:14:51.245Z,14.70
2024-03-14T23:17:19.436Z,15.98
2024-03-14T23:22:15.364Z,15.02
2024-03-14T23:24:43.164Z,15.75
2024-03-14T23:27:10.896Z,13.95
2024-03-14T23:29:38.592Z,14.48
2024-03-14T23:32:06.593Z,13.13
2024-03-14T23:34:34.257Z,13.60
2024-03-14T23:37:02.025Z,14.85
2024-03-14T23:39:30.202Z,14.02
2024-03-14T23:41:58.751Z,14.35
2024-03-14T23:44:26.443Z,13.52
2024-03-14T23:49:22.263Z,14.00
2024-03-14T23:54:18.238Z,14.00
2024-03-14T23:56:46.134Z,14.95
2024-03-14T23:59:13.993Z,13.45
